sensor_id;sensor_type;location;lat;lon;timestamp;P1;durP1;ratioP1;P2;durP2;ratioP2
37107;SDS011;23019;49.300;6.846;2022-11-20T00:00:44;1.67;;;1.23;;
37107;SDS011;23019;49.300;6.846;2022-11-20T00:02:45;1.25;;;1.13;;
37107;SDS011;23019;49.300;6.846;2022-11-20T00:04:46;1.77;;;1.40;;
37107;SDS011;23019;49.300;6.846;2022-11-20T00:06:46;0.90;;;0.90;;
37107;SDS011;23019;49.300;6.846;2022-11-20T00:08:47;1.17;;;0.98;;
37107;SDS011;23019;49.300;6.846;2022-11-20T00:10:48;2.42;;;1.10;;
37107;SDS011;23019;49.300;6.846;2022-11-20T00:12:49;2.47;;;1.45;;
37107;SDS011;23019;49.300;6.846;2022-11-20T00:14:49;1.67;;;1.48;;
37107;SDS011;23019;49.300;6.846;2022-11-20T00:16:50;1.75;;;1.30;;
37107;SDS011;23019;49.300;6.846;2022-11-20T00:18:51;1.77;;;0.90;;
37107;SDS011;23019;49.300;6.846;2022-11-20T00:20:52;1.58;;;1.20;;
37107;SDS011;23019;49.300;6.846;2022-11-20T00:22:53;1.05;;;0.98;;
37107;SDS011;23019;49.300;6.846;2022-11-20T00:24:53;1.45;;;1.10;;
37107;SDS011;23019;49.300;6.846;2022-11-20T00:26:54;1.50;;;1.38;;
37107;SDS011;23019;49.300;6.846;2022-11-20T00:28:59;1.00;;;0.90;;
37107;SDS011;23019;49.300;6.846;2022-11-20T00:31:04;1.20;;;1.10;;
37107;SDS011;23019;49.300;6.846;2022-11-20T00:33:10;1.50;;;1.40;;
37107;SDS011;23019;49.300;6.846;2022-11-20T00:35:10;1.20;;;0.85;;
37107;SDS011;23019;49.300;6.846;2022-11-20T00:37:11;0.98;;;0.85;;
37107;SDS011;23019;49.300;6.846;2022-11-20T00:39:12;1.40;;;1.10;;
37107;SDS011;23019;49.300;6.846;2022-11-20T00:41:13;1.08;;;0.90;;
37107;SDS011;23019;49.300;6.846;2022-11-20T00:43:15;3.22;;;1.08;;
37107;SDS011;23019;49.300;6.846;2022-11-20T00:45:15;1.33;;;1.02;;
37107;SDS011;23019;49.300;6.846;2022-11-20T00:47:16;1.15;;;0.95;;
37107;SDS011;23019;49.300;6.846;2022-11-20T00:49:16;1.05;;;0.95;;
37107;SDS011;23019;49.300;6.846;2022-11-20T00:51:18;1.05;;;1.00;;
37107;SDS011;23019;49.300;6.846;2022-11-20T00:53:21;0.82;;;0.82;;
37107;SDS011;23019;49.300;6.846;2022-11-20T00:55:22;1.23;;;1.00;;
37107;SDS011;23019;49.300;6.846;2022-11-20T00:57:22;1.33;;;1.15;;
37107;SDS011;23019;49.300;6.846;2022-11-20T00:59:23;0.75;;;0.73;;
37107;SDS011;23019;49.300;6.846;2022-11-20T01:01:24;1.10;;;0.80;;
37107;SDS011;23019;49.300;6.846;2022-11-20T01:03:25;1.90;;;1.50;;
37107;SDS011;23019;49.300;6.846;2022-11-20T01:05:26;0.80;;;0.68;;
37107;SDS011;23019;49.300;6.846;2022-11-20T01:07:27;1.25;;;1.05;;
37107;SDS011;23019;49.300;6.846;2022-11-20T01:09:27;1.58;;;1.10;;
37107;SDS011;23019;49.300;6.846;2022-11-20T01:11:29;1.25;;;0.82;;
37107;SDS011;23019;49.300;6.846;2022-11-20T01:13:38;0.90;;;0.80;;
37107;SDS011;23019;49.300;6.846;2022-11-20T01:15:40;1.00;;;0.85;;
37107;SDS011;23019;49.300;6.846;2022-11-20T01:17:41;0.80;;;0.80;;
37107;SDS011;23019;49.300;6.846;2022-11-20T01:19:42;1.00;;;0.90;;
37107;SDS011;23019;49.300;6.846;2022-11-20T01:21:43;0.98;;;0.60;;
37107;SDS011;23019;49.300;6.846;2022-11-20T01:23:45;1.25;;;1.02;;
37107;SDS011;23019;49.300;6.846;2022-11-20T01:25:47;0.63;;;0.63;;
37107;SDS011;23019;49.300;6.846;2022-11-20T01:27:47;1.60;;;0.75;;
37107;SDS011;23019;49.300;6.846;2022-11-20T01:29:48;1.02;;;0.80;;
37107;SDS011;23019;49.300;6.846;2022-11-20T01:31:49;0.68;;;0.68;;
37107;SDS011;23019;49.300;6.846;2022-11-20T01:33:51;0.82;;;0.82;;
37107;SDS011;23019;49.300;6.846;2022-11-20T01:35:53;0.73;;;0.70;;
37107;SDS011;23019;49.300;6.846;2022-11-20T01:38:02;1.38;;;1.08;;
37107;SDS011;23019;49.300;6.846;2022-11-20T01:40:03;1.40;;;0.73;;
37107;SDS011;23019;49.300;6.846;2022-11-20T01:42:04;0.88;;;0.85;;
37107;SDS011;23019;49.300;6.846;2022-11-20T01:46:56;0.57;;;0.55;;
37107;SDS011;23019;49.300;6.846;2022-11-20T01:49:02;0.80;;;0.80;;
37107;SDS011;23019;49.300;6.846;2022-11-20T01:51:15;0.90;;;0.70;;
37107;SDS011;23019;49.300;6.846;2022-11-20T01:53:21;0.50;;;0.50;;
37107;SDS011;23019;49.300;6.846;2022-11-20T01:55:31;1.30;;;1.20;;
37107;SDS011;23019;49.300;6.846;2022-11-20T01:57:36;0.73;;;0.63;;
37107;SDS011;23019;49.300;6.846;2022-11-20T01:59:39;0.65;;;0.60;;
37107;SDS011;23019;49.300;6.846;2022-11-20T02:01:44;0.93;;;0.77;;
37107;SDS011;23019;49.300;6.846;2022-11-20T02:03:45;1.00;;;0.60;;
37107;SDS011;23019;49.300;6.846;2022-11-20T02:05:49;1.13;;;0.70;;
37107;SDS011;23019;49.300;6.846;2022-11-20T02:08:06;0.60;;;0.60;;
37107;SDS011;23019;49.300;6.846;2022-11-20T02:10:07;1.83;;;0.80;;
37107;SDS011;23019;49.300;6.846;2022-11-20T02:12:08;0.95;;;0.73;;
37107;SDS011;23019;49.300;6.846;2022-11-20T02:14:29;4.90;;;0.90;;
37107;SDS011;23019;49.300;6.846;2022-11-20T02:16:34;1.02;;;0.90;;
37107;SDS011;23019;49.300;6.846;2022-11-20T02:18:40;0.75;;;0.65;;
37107;SDS011;23019;49.300;6.846;2022-11-20T02:20:42;1.10;;;0.57;;
37107;SDS011;23019;49.300;6.846;2022-11-20T02:22:50;0.60;;;0.57;;
37107;SDS011;23019;49.300;6.846;2022-11-20T02:25:02;1.42;;;0.80;;
37107;SDS011;23019;49.300;6.846;2022-11-20T02:27:06;0.70;;;0.70;;
37107;SDS011;23019;49.300;6.846;2022-11-20T02:29:09;1.38;;;0.63;;
37107;SDS011;23019;49.300;6.846;2022-11-20T02:31:10;0.65;;;0.60;;
37107;SDS011;23019;49.300;6.846;2022-11-20T02:33:11;0.63;;;0.63;;
37107;SDS011;23019;49.300;6.846;2022-11-20T02:37:19;0.77;;;0.77;;
37107;SDS011;23019;49.300;6.846;2022-11-20T02:39:20;0.55;;;0.55;;
37107;SDS011;23019;49.300;6.846;2022-11-20T02:41:57;0.65;;;0.65;;
37107;SDS011;23019;49.300;6.846;2022-11-20T02:43:52;0.85;;;0.50;;
37107;SDS011;23019;49.300;6.846;2022-11-20T02:45:53;1.00;;;0.90;;
37107;SDS011;23019;49.300;6.846;2022-11-20T02:47:53;0.43;;;0.40;;
37107;SDS011;23019;49.300;6.846;2022-11-20T02:49:54;0.73;;;0.52;;
37107;SDS011;23019;49.300;6.846;2022-11-20T02:51:55;0.50;;;0.50;;
37107;SDS011;23019;49.300;6.846;2022-11-20T02:53:55;0.77;;;0.55;;
37107;SDS011;23019;49.300;6.846;2022-11-20T02:55:56;0.52;;;0.45;;
37107;SDS011;23019;49.300;6.846;2022-11-20T02:57:57;0.65;;;0.50;;
37107;SDS011;23019;49.300;6.846;2022-11-20T02:59:57;0.65;;;0.50;;
37107;SDS011;23019;49.300;6.846;2022-11-20T03:01:58;0.57;;;0.52;;
37107;SDS011;23019;49.300;6.846;2022-11-20T03:03:59;0.50;;;0.50;;
37107;SDS011;23019;49.300;6.846;2022-11-20T03:05:59;0.45;;;0.45;;
37107;SDS011;23019;49.300;6.846;2022-11-20T03:08:00;0.55;;;0.40;;
37107;SDS011;23019;49.300;6.846;2022-11-20T03:10:01;0.63;;;0.60;;
37107;SDS011;23019;49.300;6.846;2022-11-20T03:12:01;0.50;;;0.50;;
37107;SDS011;23019;49.300;6.846;2022-11-20T03:14:05;0.30;;;0.30;;
37107;SDS011;23019;49.300;6.846;2022-11-20T03:16:07;0.50;;;0.50;;
37107;SDS011;23019;49.300;6.846;2022-11-20T03:18:10;0.40;;;0.40;;
37107;SDS011;23019;49.300;6.846;2022-11-20T03:20:10;0.60;;;0.60;;
37107;SDS011;23019;49.300;6.846;2022-11-20T03:22:11;1.02;;;0.63;;
37107;SDS011;23019;49.300;6.846;2022-11-20T03:24:13;0.63;;;0.30;;
37107;SDS011;23019;49.300;6.846;2022-11-20T03:28:14;1.65;;;0.50;;
37107;SDS011;23019;49.300;6.846;2022-11-20T03:30:15;0.70;;;0.60;;
37107;SDS011;23019;49.300;6.846;2022-11-20T03:32:16;0.60;;;0.50;;
37107;SDS011;23019;49.300;6.846;2022-11-20T03:34:16;0.50;;;0.40;;
37107;SDS011;23019;49.300;6.846;2022-11-20T03:36:17;0.40;;;0.40;;
37107;SDS011;23019;49.300;6.846;2022-11-20T03:38:19;0.50;;;0.50;;
37107;SDS011;23019;49.300;6.846;2022-11-20T03:40:20;0.60;;;0.60;;
37107;SDS011;23019;49.300;6.846;2022-11-20T03:42:20;0.40;;;0.40;;
37107;SDS011;23019;49.300;6.846;2022-11-20T03:44:40;0.47;;;0.47;;
37107;SDS011;23019;49.300;6.846;2022-11-20T03:46:40;0.82;;;0.50;;
37107;SDS011;23019;49.300;6.846;2022-11-20T03:48:41;0.45;;;0.40;;
37107;SDS011;23019;49.300;6.846;2022-11-20T03:50:41;0.40;;;0.40;;
37107;SDS011;23019;49.300;6.846;2022-11-20T03:52:42;0.47;;;0.47;;
37107;SDS011;23019;49.300;6.846;2022-11-20T03:54:43;1.13;;;0.50;;
37107;SDS011;23019;49.300;6.846;2022-11-20T03:56:43;0.63;;;0.50;;
37107;SDS011;23019;49.300;6.846;2022-11-20T03:58:44;1.05;;;0.32;;
37107;SDS011;23019;49.300;6.846;2022-11-20T04:00:45;0.40;;;0.40;;
37107;SDS011;23019;49.300;6.846;2022-11-20T04:02:45;1.13;;;0.57;;
37107;SDS011;23019;49.300;6.846;2022-11-20T04:04:46;1.33;;;0.60;;
37107;SDS011;23019;49.300;6.846;2022-11-20T04:06:46;0.40;;;0.40;;
37107;SDS011;23019;49.300;6.846;2022-11-20T04:08:47;0.63;;;0.40;;
37107;SDS011;23019;49.300;6.846;2022-11-20T04:10:48;0.80;;;0.45;;
37107;SDS011;23019;49.300;6.846;2022-11-20T04:12:49;0.73;;;0.40;;
37107;SDS011;23019;49.300;6.846;2022-11-20T04:14:49;0.35;;;0.35;;
37107;SDS011;23019;49.300;6.846;2022-11-20T04:16:50;0.40;;;0.30;;
37107;SDS011;23019;49.300;6.846;2022-11-20T04:18:51;0.52;;;0.50;;
37107;SDS011;23019;49.300;6.846;2022-11-20T04:20:54;3.22;;;0.68;;
37107;SDS011;23019;49.300;6.846;2022-11-20T04:22:57;0.60;;;0.43;;
37107;SDS011;23019;49.300;6.846;2022-11-20T04:24:57;0.30;;;0.30;;
37107;SDS011;23019;49.300;6.846;2022-11-20T04:26:58;0.57;;;0.47;;
37107;SDS011;23019;49.300;6.846;2022-11-20T04:28:59;2.80;;;0.50;;
37107;SDS011;23019;49.300;6.846;2022-11-20T04:31:20;0.57;;;0.47;;
37107;SDS011;23019;49.300;6.846;2022-11-20T04:33:22;0.40;;;0.40;;
37107;SDS011;23019;49.300;6.846;2022-11-20T04:35:23;0.38;;;0.38;;
37107;SDS011;23019;49.300;6.846;2022-11-20T04:37:23;0.30;;;0.30;;
37107;SDS011;23019;49.300;6.846;2022-11-20T04:39:24;2.80;;;0.60;;
37107;SDS011;23019;49.300;6.846;2022-11-20T04:41:26;0.73;;;0.40;;
37107;SDS011;23019;49.300;6.846;2022-11-20T04:43:32;0.43;;;0.32;;
37107;SDS011;23019;49.300;6.846;2022-11-20T04:45:33;0.35;;;0.35;;
37107;SDS011;23019;49.300;6.846;2022-11-20T04:47:34;0.43;;;0.40;;
37107;SDS011;23019;49.300;6.846;2022-11-20T04:49:34;0.60;;;0.40;;
37107;SDS011;23019;49.300;6.846;2022-11-20T04:51:35;0.50;;;0.50;;
37107;SDS011;23019;49.300;6.846;2022-11-20T04:53:35;0.30;;;0.30;;
37107;SDS011;23019;49.300;6.846;2022-11-20T04:55:36;0.30;;;0.30;;
37107;SDS011;23019;49.300;6.846;2022-11-20T04:57:37;0.30;;;0.30;;
37107;SDS011;23019;49.300;6.846;2022-11-20T04:59:37;0.50;;;0.50;;
37107;SDS011;23019;49.300;6.846;2022-11-20T05:01:38;0.75;;;0.40;;
37107;SDS011;23019;49.300;6.846;2022-11-20T05:03:39;0.40;;;0.35;;
37107;SDS011;23019;49.300;6.846;2022-11-20T05:05:41;0.43;;;0.43;;
37107;SDS011;23019;49.300;6.846;2022-11-20T05:07:42;0.40;;;0.40;;
37107;SDS011;23019;49.300;6.846;2022-11-20T05:09:42;0.20;;;0.20;;
37107;SDS011;23019;49.300;6.846;2022-11-20T05:11:44;0.43;;;0.40;;
37107;SDS011;23019;49.300;6.846;2022-11-20T05:13:44;0.40;;;0.40;;
37107;SDS011;23019;49.300;6.846;2022-11-20T05:15:45;0.40;;;0.30;;
37107;SDS011;23019;49.300;6.846;2022-11-20T05:17:46;0.50;;;0.40;;
37107;SDS011;23019;49.300;6.846;2022-11-20T05:19:48;0.30;;;0.30;;
37107;SDS011;23019;49.300;6.846;2022-11-20T05:21:49;0.30;;;0.30;;
37107;SDS011;23019;49.300;6.846;2022-11-20T05:23:49;0.50;;;0.40;;
37107;SDS011;23019;49.300;6.846;2022-11-20T05:25:53;0.25;;;0.25;;
37107;SDS011;23019;49.300;6.846;2022-11-20T05:27:55;0.73;;;0.40;;
37107;SDS011;23019;49.300;6.846;2022-11-20T05:29:55;0.43;;;0.43;;
37107;SDS011;23019;49.300;6.846;2022-11-20T05:31:56;0.30;;;0.30;;
37107;SDS011;23019;49.300;6.846;2022-11-20T05:33:57;0.40;;;0.40;;
37107;SDS011;23019;49.300;6.846;2022-11-20T05:35:58;0.40;;;0.35;;
37107;SDS011;23019;49.300;6.846;2022-11-20T05:37:59;0.30;;;0.30;;
37107;SDS011;23019;49.300;6.846;2022-11-20T05:39:59;0.40;;;0.40;;
37107;SDS011;23019;49.300;6.846;2022-11-20T05:42:00;0.40;;;0.40;;
37107;SDS011;23019;49.300;6.846;2022-11-20T05:44:39;0.57;;;0.30;;
37107;SDS011;23019;49.300;6.846;2022-11-20T05:46:39;0.30;;;0.30;;
37107;SDS011;23019;49.300;6.846;2022-11-20T05:48:40;0.88;;;0.32;;
37107;SDS011;23019;49.300;6.846;2022-11-20T05:50:42;0.68;;;0.38;;
37107;SDS011;23019;49.300;6.846;2022-11-20T05:52:42;0.80;;;0.60;;
37107;SDS011;23019;49.300;6.846;2022-11-20T05:54:43;0.47;;;0.43;;
37107;SDS011;23019;49.300;6.846;2022-11-20T05:56:43;0.30;;;0.30;;
37107;SDS011;23019;49.300;6.846;2022-11-20T05:58:44;2.45;;;0.40;;
37107;SDS011;23019;49.300;6.846;2022-11-20T06:00:46;0.50;;;0.30;;
37107;SDS011;23019;49.300;6.846;2022-11-20T06:02:47;0.40;;;0.40;;
37107;SDS011;23019;49.300;6.846;2022-11-20T06:04:47;0.40;;;0.40;;
37107;SDS011;23019;49.300;6.846;2022-11-20T06:06:48;0.32;;;0.30;;
37107;SDS011;23019;49.300;6.846;2022-11-20T06:08:49;0.32;;;0.32;;
37107;SDS011;23019;49.300;6.846;2022-11-20T06:10:49;0.95;;;0.30;;
37107;SDS011;23019;49.300;6.846;2022-11-20T06:12:50;0.82;;;0.45;;
37107;SDS011;23019;49.300;6.846;2022-11-20T06:14:51;0.45;;;0.30;;
37107;SDS011;23019;49.300;6.846;2022-11-20T06:16:51;0.55;;;0.50;;
37107;SDS011;23019;49.300;6.846;2022-11-20T06:18:52;0.30;;;0.30;;
37107;SDS011;23019;49.300;6.846;2022-11-20T06:20:59;0.30;;;0.20;;
37107;SDS011;23019;49.300;6.846;2022-11-20T06:23:10;0.60;;;0.35;;
37107;SDS011;23019;49.300;6.846;2022-11-20T06:25:11;0.22;;;0.22;;
37107;SDS011;23019;49.300;6.846;2022-11-20T06:27:12;0.30;;;0.30;;
37107;SDS011;23019;49.300;6.846;2022-11-20T06:29:12;0.50;;;0.30;;
37107;SDS011;23019;49.300;6.846;2022-11-20T06:31:14;0.20;;;0.20;;
37107;SDS011;23019;49.300;6.846;2022-11-20T06:33:16;0.75;;;0.55;;
37107;SDS011;23019;49.300;6.846;2022-11-20T06:35:17;0.77;;;0.40;;
37107;SDS011;23019;49.300;6.846;2022-11-20T06:37:18;0.38;;;0.38;;
37107;SDS011;23019;49.300;6.846;2022-11-20T06:39:18;0.63;;;0.63;;
37107;SDS011;23019;49.300;6.846;2022-11-20T06:41:20;0.20;;;0.20;;
37107;SDS011;23019;49.300;6.846;2022-11-20T06:43:22;0.40;;;0.40;;
37107;SDS011;23019;49.300;6.846;2022-11-20T06:45:24;0.30;;;0.30;;
37107;SDS011;23019;49.300;6.846;2022-11-20T06:47:25;0.45;;;0.30;;
37107;SDS011;23019;49.300;6.846;2022-11-20T06:49:25;0.20;;;0.20;;
37107;SDS011;23019;49.300;6.846;2022-11-20T06:51:26;0.98;;;0.30;;
37107;SDS011;23019;49.300;6.846;2022-11-20T06:53:26;0.50;;;0.38;;
37107;SDS011;23019;49.300;6.846;2022-11-20T06:55:27;0.90;;;0.30;;
37107;SDS011;23019;49.300;6.846;2022-11-20T06:57:28;0.65;;;0.47;;
37107;SDS011;23019;49.300;6.846;2022-11-20T06:59:28;0.32;;;0.30;;
37107;SDS011;23019;49.300;6.846;2022-11-20T07:01:29;0.40;;;0.30;;
37107;SDS011;23019;49.300;6.846;2022-11-20T07:03:30;0.55;;;0.40;;
37107;SDS011;23019;49.300;6.846;2022-11-20T07:05:30;0.40;;;0.30;;
37107;SDS011;23019;49.300;6.846;2022-11-20T07:07:31;0.40;;;0.40;;
37107;SDS011;23019;49.300;6.846;2022-11-20T07:09:32;0.20;;;0.20;;
37107;SDS011;23019;49.300;6.846;2022-11-20T07:11:33;0.30;;;0.30;;
37107;SDS011;23019;49.300;6.846;2022-11-20T07:13:34;0.38;;;0.32;;
37107;SDS011;23019;49.300;6.846;2022-11-20T07:15:34;0.35;;;0.30;;
37107;SDS011;23019;49.300;6.846;2022-11-20T07:17:35;0.68;;;0.30;;
37107;SDS011;23019;49.300;6.846;2022-11-20T07:19:36;0.20;;;0.20;;
37107;SDS011;23019;49.300;6.846;2022-11-20T07:21:36;0.38;;;0.30;;
37107;SDS011;23019;49.300;6.846;2022-11-20T07:23:37;0.55;;;0.30;;
37107;SDS011;23019;49.300;6.846;2022-11-20T07:25:38;0.22;;;0.20;;
37107;SDS011;23019;49.300;6.846;2022-11-20T07:27:38;0.40;;;0.40;;
37107;SDS011;23019;49.300;6.846;2022-11-20T07:29:39;0.40;;;0.40;;
37107;SDS011;23019;49.300;6.846;2022-11-20T07:31:40;0.25;;;0.20;;
37107;SDS011;23019;49.300;6.846;2022-11-20T07:33:40;0.68;;;0.30;;
37107;SDS011;23019;49.300;6.846;2022-11-20T07:35:41;0.47;;;0.30;;
37107;SDS011;23019;49.300;6.846;2022-11-20T07:37:41;0.40;;;0.30;;
37107;SDS011;23019;49.300;6.846;2022-11-20T07:39:42;1.65;;;0.30;;
37107;SDS011;23019;49.300;6.846;2022-11-20T07:41:43;0.30;;;0.30;;
37107;SDS011;23019;49.300;6.846;2022-11-20T07:43:43;0.30;;;0.30;;
37107;SDS011;23019;49.300;6.846;2022-11-20T07:45:44;0.80;;;0.22;;
37107;SDS011;23019;49.300;6.846;2022-11-20T07:47:45;0.38;;;0.22;;
37107;SDS011;23019;49.300;6.846;2022-11-20T07:49:46;0.45;;;0.40;;
37107;SDS011;23019;49.300;6.846;2022-11-20T07:51:47;0.30;;;0.30;;
37107;SDS011;23019;49.300;6.846;2022-11-20T07:53:51;0.40;;;0.40;;
37107;SDS011;23019;49.300;6.846;2022-11-20T07:55:52;0.30;;;0.30;;
37107;SDS011;23019;49.300;6.846;2022-11-20T07:57:56;0.77;;;0.30;;
37107;SDS011;23019;49.300;6.846;2022-11-20T07:59:57;0.30;;;0.20;;
37107;SDS011;23019;49.300;6.846;2022-11-20T08:01:58;0.40;;;0.32;;
37107;SDS011;23019;49.300;6.846;2022-11-20T08:03:58;0.30;;;0.20;;
37107;SDS011;23019;49.300;6.846;2022-11-20T08:06:00;0.30;;;0.20;;
37107;SDS011;23019;49.300;6.846;2022-11-20T08:08:01;0.38;;;0.30;;
37107;SDS011;23019;49.300;6.846;2022-11-20T08:10:01;0.40;;;0.40;;
37107;SDS011;23019;49.300;6.846;2022-11-20T08:12:02;0.63;;;0.30;;
37107;SDS011;23019;49.300;6.846;2022-11-20T08:14:22;0.70;;;0.20;;
37107;SDS011;23019;49.300;6.846;2022-11-20T08:16:22;0.20;;;0.20;;
37107;SDS011;23019;49.300;6.846;2022-11-20T08:18:23;0.20;;;0.20;;
37107;SDS011;23019;49.300;6.846;2022-11-20T08:20:24;0.25;;;0.25;;
37107;SDS011;23019;49.300;6.846;2022-11-20T08:22:24;0.40;;;0.30;;
37107;SDS011;23019;49.300;6.846;2022-11-20T08:24:25;0.52;;;0.40;;
37107;SDS011;23019;49.300;6.846;2022-11-20T08:26:26;0.60;;;0.20;;
37107;SDS011;23019;49.300;6.846;2022-11-20T08:28:27;0.40;;;0.38;;
37107;SDS011;23019;49.300;6.846;2022-11-20T08:30:28;0.40;;;0.40;;
37107;SDS011;23019;49.300;6.846;2022-11-20T08:32:29;0.35;;;0.30;;
37107;SDS011;23019;49.300;6.846;2022-11-20T08:34:30;0.40;;;0.40;;
37107;SDS011;23019;49.300;6.846;2022-11-20T08:36:32;0.30;;;0.30;;
37107;SDS011;23019;49.300;6.846;2022-11-20T08:38:34;0.40;;;0.30;;
37107;SDS011;23019;49.300;6.846;2022-11-20T08:40:34;0.30;;;0.30;;
37107;SDS011;23019;49.300;6.846;2022-11-20T08:42:35;0.60;;;0.40;;
37107;SDS011;23019;49.300;6.846;2022-11-20T08:44:36;0.60;;;0.40;;
37107;SDS011;23019;49.300;6.846;2022-11-20T08:46:37;0.55;;;0.30;;
37107;SDS011;23019;49.300;6.846;2022-11-20T08:48:40;0.50;;;0.50;;
37107;SDS011;23019;49.300;6.846;2022-11-20T08:50:41;0.88;;;0.50;;
37107;SDS011;23019;49.300;6.846;2022-11-20T08:52:42;0.55;;;0.38;;
37107;SDS011;23019;49.300;6.846;2022-11-20T08:54:42;0.60;;;0.40;;
37107;SDS011;23019;49.300;6.846;2022-11-20T08:56:43;0.40;;;0.40;;
37107;SDS011;23019;49.300;6.846;2022-11-20T08:58:44;0.45;;;0.40;;
37107;SDS011;23019;49.300;6.846;2022-11-20T09:00:44;1.40;;;0.50;;
37107;SDS011;23019;49.300;6.846;2022-11-20T09:02:45;0.35;;;0.35;;
37107;SDS011;23019;49.300;6.846;2022-11-20T09:04:46;0.57;;;0.57;;
37107;SDS011;23019;49.300;6.846;2022-11-20T09:06:46;0.30;;;0.30;;
37107;SDS011;23019;49.300;6.846;2022-11-20T09:08:54;0.50;;;0.40;;
37107;SDS011;23019;49.300;6.846;2022-11-20T09:10:55;0.52;;;0.40;;
37107;SDS011;23019;49.300;6.846;2022-11-20T09:12:56;0.63;;;0.50;;
37107;SDS011;23019;49.300;6.846;2022-11-20T09:14:57;3.10;;;0.60;;
37107;SDS011;23019;49.300;6.846;2022-11-20T09:16:58;0.63;;;0.55;;
37107;SDS011;23019;49.300;6.846;2022-11-20T09:18:59;0.68;;;0.40;;
37107;SDS011;23019;49.300;6.846;2022-11-20T09:21:00;1.05;;;0.50;;
37107;SDS011;23019;49.300;6.846;2022-11-20T09:23:03;0.50;;;0.50;;
37107;SDS011;23019;49.300;6.846;2022-11-20T09:25:03;0.47;;;0.47;;
37107;SDS011;23019;49.300;6.846;2022-11-20T09:27:04;0.60;;;0.50;;
37107;SDS011;23019;49.300;6.846;2022-11-20T09:29:05;0.73;;;0.40;;
37107;SDS011;23019;49.300;6.846;2022-11-20T09:31:06;2.20;;;0.50;;
37107;SDS011;23019;49.300;6.846;2022-11-20T09:33:08;0.73;;;0.40;;
37107;SDS011;23019;49.300;6.846;2022-11-20T09:35:09;0.40;;;0.40;;
37107;SDS011;23019;49.300;6.846;2022-11-20T09:37:10;0.30;;;0.30;;
37107;SDS011;23019;49.300;6.846;2022-11-20T09:39:11;1.27;;;0.80;;
37107;SDS011;23019;49.300;6.846;2022-11-20T09:46:50;0.43;;;0.32;;
37107;SDS011;23019;49.300;6.846;2022-11-20T09:51:21;0.57;;;0.40;;
37107;SDS011;23019;49.300;6.846;2022-11-20T09:53:35;0.43;;;0.43;;
37107;SDS011;23019;49.300;6.846;2022-11-20T09:56:02;0.52;;;0.40;;
37107;SDS011;23019;49.300;6.846;2022-11-20T09:58:13;0.55;;;0.43;;
37107;SDS011;23019;49.300;6.846;2022-11-20T10:00:22;0.30;;;0.30;;
37107;SDS011;23019;49.300;6.846;2022-11-20T10:04:27;1.23;;;0.55;;
37107;SDS011;23019;49.300;6.846;2022-11-20T10:06:33;0.68;;;0.40;;
37107;SDS011;23019;49.300;6.846;2022-11-20T10:09:47;0.38;;;0.30;;
37107;SDS011;23019;49.300;6.846;2022-11-20T10:11:28;0.65;;;0.30;;
37107;SDS011;23019;49.300;6.846;2022-11-20T10:20:40;0.98;;;0.85;;
37107;SDS011;23019;49.300;6.846;2022-11-20T10:25:25;0.50;;;0.40;;
37107;SDS011;23019;49.300;6.846;2022-11-20T10:29:57;0.90;;;0.82;;
37107;SDS011;23019;49.300;6.846;2022-11-20T10:32:16;0.70;;;0.43;;
37107;SDS011;23019;49.300;6.846;2022-11-20T10:34:38;1.58;;;0.47;;
37107;SDS011;23019;49.300;6.846;2022-11-20T10:36:50;0.70;;;0.43;;
37107;SDS011;23019;49.300;6.846;2022-11-20T10:39:00;0.60;;;0.47;;
37107;SDS011;23019;49.300;6.846;2022-11-20T10:41:07;0.50;;;0.30;;
37107;SDS011;23019;49.300;6.846;2022-11-20T10:43:28;1.15;;;0.40;;
37107;SDS011;23019;49.300;6.846;2022-11-20T10:47:47;0.73;;;0.50;;
37107;SDS011;23019;49.300;6.846;2022-11-20T10:49:49;0.65;;;0.40;;
37107;SDS011;23019;49.300;6.846;2022-11-20T10:52:03;2.38;;;0.70;;
37107;SDS011;23019;49.300;6.846;2022-11-20T11:00:43;1.20;;;0.30;;
37107;SDS011;23019;49.300;6.846;2022-11-20T11:02:46;0.73;;;0.50;;
37107;SDS011;23019;49.300;6.846;2022-11-20T11:04:50;0.75;;;0.50;;
37107;SDS011;23019;49.300;6.846;2022-11-20T11:06:51;1.02;;;0.50;;
37107;SDS011;23019;49.300;6.846;2022-11-20T11:09:00;1.00;;;0.60;;
37107;SDS011;23019;49.300;6.846;2022-11-20T11:11:15;0.65;;;0.40;;
37107;SDS011;23019;49.300;6.846;2022-11-20T11:13:26;0.63;;;0.50;;
37107;SDS011;23019;49.300;6.846;2022-11-20T11:15:38;0.65;;;0.40;;
37107;SDS011;23019;49.300;6.846;2022-11-20T11:17:46;1.98;;;0.57;;
37107;SDS011;23019;49.300;6.846;2022-11-20T11:22:16;2.08;;;0.80;;
37107;SDS011;23019;49.300;6.846;2022-11-20T11:24:25;1.35;;;0.50;;
37107;SDS011;23019;49.300;6.846;2022-11-20T11:26:27;0.73;;;0.50;;
37107;SDS011;23019;49.300;6.846;2022-11-20T11:28:28;1.90;;;0.98;;
37107;SDS011;23019;49.300;6.846;2022-11-20T11:30:30;0.50;;;0.40;;
37107;SDS011;23019;49.300;6.846;2022-11-20T11:32:42;0.88;;;0.52;;
37107;SDS011;23019;49.300;6.846;2022-11-20T11:34:43;0.80;;;0.60;;
37107;SDS011;23019;49.300;6.846;2022-11-20T11:36:52;1.02;;;0.40;;
37107;SDS011;23019;49.300;6.846;2022-11-20T11:38:57;0.57;;;0.40;;
37107;SDS011;23019;49.300;6.846;2022-11-20T11:40:57;1.85;;;0.50;;
37107;SDS011;23019;49.300;6.846;2022-11-20T11:42:59;1.05;;;0.50;;
37107;SDS011;23019;49.300;6.846;2022-11-20T11:45:05;0.60;;;0.50;;
37107;SDS011;23019;49.300;6.846;2022-11-20T11:47:25;0.85;;;0.50;;
37107;SDS011;23019;49.300;6.846;2022-11-20T11:49:30;0.55;;;0.32;;
37107;SDS011;23019;49.300;6.846;2022-11-20T11:53:53;1.00;;;0.40;;
37107;SDS011;23019;49.300;6.846;2022-11-20T11:56:04;0.50;;;0.40;;
37107;SDS011;23019;49.300;6.846;2022-11-20T11:58:11;0.93;;;0.50;;
37107;SDS011;23019;49.300;6.846;2022-11-20T12:00:24;0.52;;;0.40;;
37107;SDS011;23019;49.300;6.846;2022-11-20T12:02:29;0.43;;;0.40;;
37107;SDS011;23019;49.300;6.846;2022-11-20T12:04:54;0.60;;;0.40;;
37107;SDS011;23019;49.300;6.846;2022-11-20T12:07:06;0.52;;;0.40;;
37107;SDS011;23019;49.300;6.846;2022-11-20T12:09:14;0.63;;;0.50;;
37107;SDS011;23019;49.300;6.846;2022-11-20T12:13:58;0.93;;;0.40;;
37107;SDS011;23019;49.300;6.846;2022-11-20T12:16:02;1.00;;;0.50;;
37107;SDS011;23019;49.300;6.846;2022-11-20T12:18:07;0.40;;;0.40;;
37107;SDS011;23019;49.300;6.846;2022-11-20T12:20:14;3.58;;;0.95;;
37107;SDS011;23019;49.300;6.846;2022-11-20T12:22:27;0.68;;;0.40;;
37107;SDS011;23019;49.300;6.846;2022-11-20T12:29:43;1.30;;;0.68;;
37107;SDS011;23019;49.300;6.846;2022-11-20T12:39:29;1.08;;;0.60;;
37107;SDS011;23019;49.300;6.846;2022-11-20T12:41:50;0.65;;;0.40;;
37107;SDS011;23019;49.300;6.846;2022-11-20T12:47:09;0.35;;;0.35;;
37107;SDS011;23019;49.300;6.846;2022-11-20T12:49:25;1.05;;;0.70;;
37107;SDS011;23019;49.300;6.846;2022-11-20T12:59:17;0.40;;;0.40;;
37107;SDS011;23019;49.300;6.846;2022-11-20T13:03:55;1.80;;;0.88;;
37107;SDS011;23019;49.300;6.846;2022-11-20T13:08:23;1.35;;;0.45;;
37107;SDS011;23019;49.300;6.846;2022-11-20T13:10:45;0.38;;;0.32;;
37107;SDS011;23019;49.300;6.846;2022-11-20T13:12:55;0.52;;;0.30;;
37107;SDS011;23019;49.300;6.846;2022-11-20T13:17:22;2.42;;;0.40;;
37107;SDS011;23019;49.300;6.846;2022-11-20T13:19:30;0.30;;;0.30;;
37107;SDS011;23019;49.300;6.846;2022-11-20T13:21:36;0.55;;;0.55;;
37107;SDS011;23019;49.300;6.846;2022-11-20T13:23:46;0.50;;;0.50;;
37107;SDS011;23019;49.300;6.846;2022-11-20T13:25:47;0.65;;;0.38;;
37107;SDS011;23019;49.300;6.846;2022-11-20T13:27:50;0.63;;;0.47;;
37107;SDS011;23019;49.300;6.846;2022-11-20T13:32:18;0.30;;;0.30;;
37107;SDS011;23019;49.300;6.846;2022-11-20T13:34:25;0.43;;;0.40;;
37107;SDS011;23019;49.300;6.846;2022-11-20T13:36:28;0.70;;;0.50;;
37107;SDS011;23019;49.300;6.846;2022-11-20T13:38:49;0.63;;;0.40;;
37107;SDS011;23019;49.300;6.846;2022-11-20T13:40:56;0.38;;;0.30;;
37107;SDS011;23019;49.300;6.846;2022-11-20T13:45:26;0.55;;;0.52;;